sensor_id;sensor_type;location;lat;lon;timestamp;pressure;altitude;pressure_sealevel;temperature;humidity
21828;BME280;11076;47.942;11.804;2023-06-10T00:04:46;93938.72;;;15.03;81.99
21828;BME280;11076;47.942;11.804;2023-06-10T00:09:49;93944.56;;;14.95;83.51
21828;BME280;11076;47.942;11.804;2023-06-10T00:14:52;93934.44;;;15.07;82.35
21828;BME280;11076;47.942;11.804;2023-06-10T00:19:55;93937.47;;;14.83;83.50
21828;BME280;11076;47.942;11.804;2023-06-10T00:24:58;93938.34;;;14.62;85.37
21828;BME280;11076;47.942;11.804;2023-06-10T00:30:04;93941.34;;;14.65;85.72
21828;BME280;11076;47.942;11.804;2023-06-10T00:35:09;93945.88;;;14.60;86.48
21828;BME280;11076;47.942;11.804;2023-06-10T00:40:12;93951.19;;;14.55;86.17
21828;BME280;11076;47.942;11.804;2023-06-10T00:45:14;93951.69;;;14.51;86.36
21828;BME280;11076;47.942;11.804;2023-06-10T00:50:17;93954.75;;;14.60;86.72
21828;BME280;11076;47.942;11.804;2023-06-10T00:55:19;93957.59;;;14.48;87.08
21828;BME280;11076;47.942;11.804;2023-06-10T01:00:22;93953.16;;;14.37;88.68
21828;BME280;11076;47.942;11.804;2023-06-10T01:05:25;93946.59;;;14.28;88.68
21828;BME280;11076;47.942;11.804;2023-06-10T01:11:03;93956.13;;;14.13;89.07
21828;BME280;11076;47.942;11.804;2023-06-10T01:16:10;93956.44;;;14.17;89.13
21828;BME280;11076;47.942;11.804;2023-06-10T01:21:21;93957.59;;;14.04;90.37
21828;BME280;11076;47.942;11.804;2023-06-10T01:26:28;93961.97;;;13.88;92.32
21828;BME280;11076;47.942;11.804;2023-06-10T01:31:46;93954.00;;;13.93;91.11
21828;BME280;11076;47.942;11.804;2023-06-10T01:36:52;93951.78;;;13.90;92.20
21828;BME280;11076;47.942;11.804;2023-06-10T01:41:57;93958.03;;;13.74;93.41
21828;BME280;11076;47.942;11.804;2023-06-10T01:47:00;93948.66;;;13.77;93.17
21828;BME280;11076;47.942;11.804;2023-06-10T01:52:02;93956.59;;;13.66;94.11
21828;BME280;11076;47.942;11.804;2023-06-10T01:57:07;93956.44;;;13.73;94.90
21828;BME280;11076;47.942;11.804;2023-06-10T02:02:10;93955.59;;;13.72;94.51
21828;BME280;11076;47.942;11.804;2023-06-10T02:07:13;93968.00;;;13.57;95.03
21828;BME280;11076;47.942;11.804;2023-06-10T02:12:15;93956.47;;;13.56;95.55
21828;BME280;11076;47.942;11.804;2023-06-10T02:17:19;93963.47;;;13.57;95.16
21828;BME280;11076;47.942;11.804;2023-06-10T02:22:22;93955.97;;;13.59;95.44
21828;BME280;11076;47.942;11.804;2023-06-10T02:27:25;93956.47;;;13.56;95.75
21828;BME280;11076;47.942;11.804;2023-06-10T02:32:29;93954.75;;;13.50;96.11
21828;BME280;11076;47.942;11.804;2023-06-10T02:37:32;93953.81;;;13.39;96.27
21828;BME280;11076;47.942;11.804;2023-06-10T02:42:35;93951.13;;;13.39;97.05
21828;BME280;11076;47.942;11.804;2023-06-10T02:47:39;93955.84;;;13.32;97.49
21828;BME280;11076;47.942;11.804;2023-06-10T02:52:46;93961.84;;;13.22;99.65
21828;BME280;11076;47.942;11.804;2023-06-10T02:57:50;93967.31;;;13.27;98.38
21828;BME280;11076;47.942;11.804;2023-06-10T03:02:54;93960.38;;;13.14;98.99
21828;BME280;11076;47.942;11.804;2023-06-10T03:08:04;93957.47;;;13.16;99.46
21828;BME280;11076;47.942;11.804;2023-06-10T03:13:09;93964.28;;;13.41;98.84
21828;BME280;11076;47.942;11.804;2023-06-10T03:18:12;93974.06;;;13.13;99.77
21828;BME280;11076;47.942;11.804;2023-06-10T03:23:16;93973.41;;;13.06;100.00
21828;BME280;11076;47.942;11.804;2023-06-10T03:28:18;93973.66;;;13.21;99.19
21828;BME280;11076;47.942;11.804;2023-06-10T03:33:21;93977.47;;;13.08;99.32
21828;BME280;11076;47.942;11.804;2023-06-10T03:38:24;93983.09;;;13.24;98.77
21828;BME280;11076;47.942;11.804;2023-06-10T03:43:28;93984.97;;;13.23;98.97
21828;BME280;11076;47.942;11.804;2023-06-10T03:48:31;93991.94;;;13.24;98.71
21828;BME280;11076;47.942;11.804;2023-06-10T03:53:33;93992.28;;;13.45;97.84
21828;BME280;11076;47.942;11.804;2023-06-10T03:58:35;93997.66;;;13.45;98.30
21828;BME280;11076;47.942;11.804;2023-06-10T04:03:39;93992.84;;;13.64;97.51
21828;BME280;11076;47.942;11.804;2023-06-10T04:08:44;93990.13;;;13.81;97.15
21828;BME280;11076;47.942;11.804;2023-06-10T04:13:48;94000.69;;;13.87;97.38
21828;BME280;11076;47.942;11.804;2023-06-10T04:18:51;94005.97;;;14.04;97.13
21828;BME280;11076;47.942;11.804;2023-06-10T04:23:54;94006.47;;;14.45;93.03
21828;BME280;11076;47.942;11.804;2023-06-10T04:28:57;94019.19;;;14.28;94.08
21828;BME280;11076;47.942;11.804;2023-06-10T04:33:59;94021.38;;;14.31;93.83
21828;BME280;11076;47.942;11.804;2023-06-10T04:39:04;94019.88;;;14.62;93.70
21828;BME280;11076;47.942;11.804;2023-06-10T04:44:09;94027.22;;;15.26;91.52
21828;BME280;11076;47.942;11.804;2023-06-10T04:49:12;94018.31;;;15.58;91.31
21828;BME280;11076;47.942;11.804;2023-06-10T04:54:16;94026.00;;;17.18;85.27
21828;BME280;11076;47.942;11.804;2023-06-10T04:59:19;94038.16;;;17.21;87.68
21828;BME280;11076;47.942;11.804;2023-06-10T05:04:21;94026.59;;;17.51;86.65
21828;BME280;11076;47.942;11.804;2023-06-10T05:09:23;94027.38;;;17.46;86.36
21828;BME280;11076;47.942;11.804;2023-06-10T05:14:26;94026.75;;;18.92;83.42
21828;BME280;11076;47.942;11.804;2023-06-10T05:19:29;94013.38;;;24.10;68.59
21828;BME280;11076;47.942;11.804;2023-06-10T05:24:32;94013.09;;;26.78;56.57
21828;BME280;11076;47.942;11.804;2023-06-10T05:29:34;94015.25;;;27.86;50.81
21828;BME280;11076;47.942;11.804;2023-06-10T05:34:37;94018.59;;;28.59;49.22
21828;BME280;11076;47.942;11.804;2023-06-10T05:39:39;94017.06;;;29.60;45.06
21828;BME280;11076;47.942;11.804;2023-06-10T05:44:42;94014.09;;;30.21;42.81
21828;BME280;11076;47.942;11.804;2023-06-10T05:49:44;94017.13;;;30.60;41.89
21828;BME280;11076;47.942;11.804;2023-06-10T05:54:49;94017.13;;;31.43;40.20
21828;BME280;11076;47.942;11.804;2023-06-10T05:59:52;94009.22;;;31.97;38.86
21828;BME280;11076;47.942;11.804;2023-06-10T06:04:54;94009.66;;;32.38;37.82
21828;BME280;11076;47.942;11.804;2023-06-10T06:09:56;94008.53;;;32.85;37.21
21828;BME280;11076;47.942;11.804;2023-06-10T06:14:59;94011.91;;;32.75;36.81
21828;BME280;11076;47.942;11.804;2023-06-10T06:20:03;94025.03;;;32.16;36.39
21828;BME280;11076;47.942;11.804;2023-06-10T06:25:06;94020.41;;;31.13;37.61
21828;BME280;11076;47.942;11.804;2023-06-10T06:30:08;94023.53;;;28.65;40.85
21828;BME280;11076;47.942;11.804;2023-06-10T06:35:11;94030.88;;;24.71;49.65
21828;BME280;11076;47.942;11.804;2023-06-10T06:40:13;94035.19;;;23.42;54.25
21828;BME280;11076;47.942;11.804;2023-06-10T06:45:16;94035.38;;;22.81;56.20
21828;BME280;11076;47.942;11.804;2023-06-10T06:50:19;94042.97;;;22.10;59.41
21828;BME280;11076;47.942;11.804;2023-06-10T06:55:21;94039.81;;;21.89;61.01
21828;BME280;11076;47.942;11.804;2023-06-10T07:00:23;94041.50;;;21.85;61.72
21828;BME280;11076;47.942;11.804;2023-06-10T07:05:26;94052.41;;;21.66;64.38
21828;BME280;11076;47.942;11.804;2023-06-10T07:10:29;94043.69;;;21.50;64.73
21828;BME280;11076;47.942;11.804;2023-06-10T07:15:32;94044.84;;;21.96;64.88
21828;BME280;11076;47.942;11.804;2023-06-10T07:20:35;94039.94;;;22.12;64.96
21828;BME280;11076;47.942;11.804;2023-06-10T07:25:37;94039.09;;;22.30;64.72
21828;BME280;11076;47.942;11.804;2023-06-10T07:30:40;94045.38;;;22.44;63.73
21828;BME280;11076;47.942;11.804;2023-06-10T07:35:42;94044.38;;;22.82;63.35
21828;BME280;11076;47.942;11.804;2023-06-10T07:40:45;94044.88;;;22.98;63.21
21828;BME280;11076;47.942;11.804;2023-06-10T07:45:47;94058.00;;;23.46;62.80
21828;BME280;11076;47.942;11.804;2023-06-10T07:50:50;94048.34;;;22.15;65.55
21828;BME280;11076;47.942;11.804;2023-06-10T07:55:52;94051.63;;;22.59;64.16
21828;BME280;11076;47.942;11.804;2023-06-10T08:00:55;94052.34;;;22.78;63.29
21828;BME280;11076;47.942;11.804;2023-06-10T08:05:57;94050.22;;;23.03;62.50
21828;BME280;11076;47.942;11.804;2023-06-10T08:11:00;94053.34;;;23.10;62.93
21828;BME280;11076;47.942;11.804;2023-06-10T08:16:02;94053.63;;;22.39;63.38
21828;BME280;11076;47.942;11.804;2023-06-10T08:21:05;94052.44;;;22.73;62.05
21828;BME280;11076;47.942;11.804;2023-06-10T08:26:07;94052.56;;;22.68;59.94
21828;BME280;11076;47.942;11.804;2023-06-10T08:31:10;94044.47;;;22.91;61.15
21828;BME280;11076;47.942;11.804;2023-06-10T08:36:12;94043.34;;;23.06;58.92
21828;BME280;11076;47.942;11.804;2023-06-10T08:41:17;94045.38;;;23.50;58.04
21828;BME280;11076;47.942;11.804;2023-06-10T08:46:20;94043.75;;;23.49;58.04
21828;BME280;11076;47.942;11.804;2023-06-10T08:51:23;94056.72;;;23.66;56.99
21828;BME280;11076;47.942;11.804;2023-06-10T08:56:28;94043.31;;;23.92;54.12
21828;BME280;11076;47.942;11.804;2023-06-10T09:01:32;94049.72;;;23.74;54.34
21828;BME280;11076;47.942;11.804;2023-06-10T09:06:35;94056.78;;;23.52;54.82
21828;BME280;11076;47.942;11.804;2023-06-10T09:11:38;94051.66;;;24.18;55.14
21828;BME280;11076;47.942;11.804;2023-06-10T09:16:41;94038.88;;;24.05;53.60
21828;BME280;11076;47.942;11.804;2023-06-10T09:21:44;94041.56;;;23.96;54.42
21828;BME280;11076;47.942;11.804;2023-06-10T09:26:46;94041.00;;;24.08;54.53
21828;BME280;11076;47.942;11.804;2023-06-10T09:31:48;94045.25;;;23.55;56.18
21828;BME280;11076;47.942;11.804;2023-06-10T09:36:51;94052.06;;;23.67;57.39
21828;BME280;11076;47.942;11.804;2023-06-10T09:41:53;94045.13;;;24.28;55.67
21828;BME280;11076;47.942;11.804;2023-06-10T09:46:56;94049.69;;;24.41;54.07
21828;BME280;11076;47.942;11.804;2023-06-10T09:52:05;94041.66;;;24.45;55.15
21828;BME280;11076;47.942;11.804;2023-06-10T09:57:08;94038.59;;;24.69;52.60
21828;BME280;11076;47.942;11.804;2023-06-10T10:02:18;94052.06;;;24.66;50.48
21828;BME280;11076;47.942;11.804;2023-06-10T10:07:21;94048.34;;;24.30;50.12
21828;BME280;11076;47.942;11.804;2023-06-10T10:12:24;94055.78;;;23.71;49.95
21828;BME280;11076;47.942;11.804;2023-06-10T10:17:27;94047.41;;;24.66;49.89
21828;BME280;11076;47.942;11.804;2023-06-10T10:22:33;94040.25;;;24.88;49.81
21828;BME280;11076;47.942;11.804;2023-06-10T10:32:58;94048.63;;;25.00;50.15
21828;BME280;11076;47.942;11.804;2023-06-10T10:38:03;94043.59;;;24.76;50.70
21828;BME280;11076;47.942;11.804;2023-06-10T10:43:07;94040.69;;;25.82;50.59
21828;BME280;11076;47.942;11.804;2023-06-10T10:48:11;94035.03;;;26.13;49.41
21828;BME280;11076;47.942;11.804;2023-06-10T10:53:19;94035.16;;;26.26;49.87
21828;BME280;11076;47.942;11.804;2023-06-10T10:58:24;94037.09;;;26.25;48.01
21828;BME280;11076;47.942;11.804;2023-06-10T11:03:29;94036.31;;;26.25;47.06
21828;BME280;11076;47.942;11.804;2023-06-10T11:13:37;94035.25;;;24.50;50.23
21828;BME280;11076;47.942;11.804;2023-06-10T11:18:40;94032.28;;;25.17;47.11
21828;BME280;11076;47.942;11.804;2023-06-10T11:23:43;94031.03;;;25.41;47.11
21828;BME280;11076;47.942;11.804;2023-06-10T11:34:02;94037.31;;;25.33;46.88
21828;BME280;11076;47.942;11.804;2023-06-10T11:39:09;94030.06;;;25.72;44.90
21828;BME280;11076;47.942;11.804;2023-06-10T11:44:13;94025.56;;;25.67;44.23
21828;BME280;11076;47.942;11.804;2023-06-10T11:49:17;94026.38;;;25.59;43.37
21828;BME280;11076;47.942;11.804;2023-06-10T11:54:20;94021.38;;;25.70;42.87
21828;BME280;11076;47.942;11.804;2023-06-10T11:59:27;94019.25;;;25.84;42.70
21828;BME280;11076;47.942;11.804;2023-06-10T12:04:30;94010.88;;;25.89;43.88
21828;BME280;11076;47.942;11.804;2023-06-10T12:09:32;93997.84;;;25.86;44.54
21828;BME280;11076;47.942;11.804;2023-06-10T12:14:59;93989.06;;;26.36;43.24
21828;BME280;11076;47.942;11.804;2023-06-10T12:20:06;93994.81;;;26.44;42.36
21828;BME280;11076;47.942;11.804;2023-06-10T12:25:11;94004.41;;;26.67;41.58
21828;BME280;11076;47.942;11.804;2023-06-10T12:30:21;93990.50;;;26.34;41.74
21828;BME280;11076;47.942;11.804;2023-06-10T12:35:26;93993.75;;;27.04;41.74
21828;BME280;11076;47.942;11.804;2023-06-10T12:40:31;93991.56;;;27.61;40.34
21828;BME280;11076;47.942;11.804;2023-06-10T12:45:35;93995.94;;;27.11;38.92
21828;BME280;11076;47.942;11.804;2023-06-10T12:50:42;93989.44;;;26.94;39.15
21828;BME280;11076;47.942;11.804;2023-06-10T12:55:44;93985.25;;;27.81;43.13
21828;BME280;11076;47.942;11.804;2023-06-10T13:00:49;93987.00;;;27.86;43.95
21828;BME280;11076;47.942;11.804;2023-06-10T13:05:54;93992.31;;;27.70;45.92
21828;BME280;11076;47.942;11.804;2023-06-10T13:10:57;93989.94;;;26.58;46.08
21828;BME280;11076;47.942;11.804;2023-06-10T13:16:00;93992.13;;;27.03;47.89
21828;BME280;11076;47.942;11.804;2023-06-10T13:21:03;94004.25;;;27.02;47.89
21828;BME280;11076;47.942;11.804;2023-06-10T13:26:06;93995.88;;;26.98;46.61
21828;BME280;11076;47.942;11.804;2023-06-10T13:31:08;93985.84;;;27.32;47.35
21828;BME280;11076;47.942;11.804;2023-06-10T13:36:11;93985.56;;;27.46;45.68
21828;BME280;11076;47.942;11.804;2023-06-10T13:41:14;93990.88;;;27.85;45.09
21828;BME280;11076;47.942;11.804;2023-06-10T13:46:16;93980.09;;;28.13;43.15
21828;BME280;11076;47.942;11.804;2023-06-10T13:51:19;93994.91;;;27.87;43.23
21828;BME280;11076;47.942;11.804;2023-06-10T13:56:21;93990.13;;;27.42;43.18
21828;BME280;11076;47.942;11.804;2023-06-10T14:01:24;93993.56;;;27.51;42.56
21828;BME280;11076;47.942;11.804;2023-06-10T14:06:27;93986.63;;;28.08;41.94
21828;BME280;11076;47.942;11.804;2023-06-10T14:11:29;93994.41;;;27.52;42.40
21828;BME280;11076;47.942;11.804;2023-06-10T14:16:33;93993.53;;;27.09;42.30
21828;BME280;11076;47.942;11.804;2023-06-10T14:21:36;93988.81;;;27.18;43.62
21828;BME280;11076;47.942;11.804;2023-06-10T14:26:38;93988.97;;;27.43;41.02
21828;BME280;11076;47.942;11.804;2023-06-10T14:31:41;93999.38;;;26.31;44.26
21828;BME280;11076;47.942;11.804;2023-06-10T14:36:43;93996.25;;;26.03;44.81
21828;BME280;11076;47.942;11.804;2023-06-10T14:41:46;94003.63;;;26.11;43.87
21828;BME280;11076;47.942;11.804;2023-06-10T14:46:48;93990.16;;;26.35;44.74
21828;BME280;11076;47.942;11.804;2023-06-10T14:51:50;94001.13;;;26.35;43.52
21828;BME280;11076;47.942;11.804;2023-06-10T14:56:53;94004.28;;;26.64;42.14
21828;BME280;11076;47.942;11.804;2023-06-10T15:01:55;93998.94;;;26.67;41.10
21828;BME280;11076;47.942;11.804;2023-06-10T15:06:58;93986.00;;;26.76;41.38
21828;BME280;11076;47.942;11.804;2023-06-10T15:12:00;93986.72;;;27.15;40.32
21828;BME280;11076;47.942;11.804;2023-06-10T15:17:03;93982.47;;;27.27;40.34
21828;BME280;11076;47.942;11.804;2023-06-10T15:22:06;93980.84;;;27.89;39.04
21828;BME280;11076;47.942;11.804;2023-06-10T15:27:08;93978.63;;;26.98;40.67
21828;BME280;11076;47.942;11.804;2023-06-10T15:32:11;93979.09;;;26.23;41.06
21828;BME280;11076;47.942;11.804;2023-06-10T15:37:19;93988.50;;;25.87;43.24
21828;BME280;11076;47.942;11.804;2023-06-10T15:42:23;93985.16;;;25.64;45.08
21828;BME280;11076;47.942;11.804;2023-06-10T15:47:25;93980.13;;;25.84;45.17
21828;BME280;11076;47.942;11.804;2023-06-10T15:52:28;93984.06;;;26.30;44.65
21828;BME280;11076;47.942;11.804;2023-06-10T15:57:30;93973.25;;;26.72;44.32
21828;BME280;11076;47.942;11.804;2023-06-10T16:02:33;93978.38;;;26.44;44.58
21828;BME280;11076;47.942;11.804;2023-06-10T16:07:37;93981.63;;;25.64;47.76
21828;BME280;11076;47.942;11.804;2023-06-10T16:12:40;93985.75;;;25.00;49.91
21828;BME280;11076;47.942;11.804;2023-06-10T16:17:43;93995.38;;;24.40;51.72
21828;BME280;11076;47.942;11.804;2023-06-10T16:22:45;93989.88;;;24.31;51.92
21828;BME280;11076;47.942;11.804;2023-06-10T16:27:47;94010.06;;;23.90;53.48
21828;BME280;11076;47.942;11.804;2023-06-10T16:32:50;94023.06;;;23.48;56.20
21828;BME280;11076;47.942;11.804;2023-06-10T16:37:52;94034.41;;;23.28;57.05
21828;BME280;11076;47.942;11.804;2023-06-10T16:42:55;94035.63;;;23.21;57.63
21828;BME280;11076;47.942;11.804;2023-06-10T16:47:57;94033.00;;;23.30;58.07
21828;BME280;11076;47.942;11.804;2023-06-10T16:52:59;94037.38;;;23.54;57.12
21828;BME280;11076;47.942;11.804;2023-06-10T16:58:02;94045.28;;;23.41;58.63
21828;BME280;11076;47.942;11.804;2023-06-10T17:03:04;94049.84;;;23.69;58.70
21828;BME280;11076;47.942;11.804;2023-06-10T17:08:07;94048.47;;;24.25;57.34
21828;BME280;11076;47.942;11.804;2023-06-10T17:13:10;94048.06;;;24.09;57.37
21828;BME280;11076;47.942;11.804;2023-06-10T17:18:12;94051.97;;;25.54;54.23
21828;BME280;11076;47.942;11.804;2023-06-10T17:23:15;94043.97;;;26.40;49.26
21828;BME280;11076;47.942;11.804;2023-06-10T17:28:17;94032.78;;;26.71;47.14
21828;BME280;11076;47.942;11.804;2023-06-10T17:33:20;94043.13;;;26.57;45.27
21828;BME280;11076;47.942;11.804;2023-06-10T17:38:23;94035.44;;;26.42;45.88
21828;BME280;11076;47.942;11.804;2023-06-10T17:43:25;94052.63;;;26.04;47.09
21828;BME280;11076;47.942;11.804;2023-06-10T17:48:27;94057.59;;;25.58;47.73
21828;BME280;11076;47.942;11.804;2023-06-10T17:53:30;94053.84;;;23.85;52.04
21828;BME280;11076;47.942;11.804;2023-06-10T17:58:32;94049.00;;;23.09;54.21
21828;BME280;11076;47.942;11.804;2023-06-10T18:03:34;94057.88;;;23.01;55.61
21828;BME280;11076;47.942;11.804;2023-06-10T18:08:38;94059.09;;;22.67;56.76
21828;BME280;11076;47.942;11.804;2023-06-10T18:13:41;94057.88;;;22.46;57.58
21828;BME280;11076;47.942;11.804;2023-06-10T18:18:43;94056.94;;;22.22;59.17
21828;BME280;11076;47.942;11.804;2023-06-10T18:23:46;94072.22;;;22.04;60.26
21828;BME280;11076;47.942;11.804;2023-06-10T18:28:48;94073.88;;;21.87;62.07
21828;BME280;11076;47.942;11.804;2023-06-10T18:33:51;94077.41;;;21.68;63.04
21828;BME280;11076;47.942;11.804;2023-06-10T18:38:53;94077.38;;;22.20;62.10
21828;BME280;11076;47.942;11.804;2023-06-10T18:43:55;94087.56;;;21.43;63.83
21828;BME280;11076;47.942;11.804;2023-06-10T18:48:58;94090.56;;;20.80;67.08
21828;BME280;11076;47.942;11.804;2023-06-10T18:54:00;94089.59;;;20.41;68.79
21828;BME280;11076;47.942;11.804;2023-06-10T18:59:05;94104.22;;;20.16;69.67
21828;BME280;11076;47.942;11.804;2023-06-10T19:04:07;94108.03;;;19.81;71.62
21828;BME280;11076;47.942;11.804;2023-06-10T19:09:10;94112.53;;;19.56;72.55
21828;BME280;11076;47.942;11.804;2023-06-10T19:14:13;94114.84;;;19.34;73.92
21828;BME280;11076;47.942;11.804;2023-06-10T19:19:15;94122.53;;;19.16;73.89
21828;BME280;11076;47.942;11.804;2023-06-10T19:24:17;94137.84;;;18.86;74.96
21828;BME280;11076;47.942;11.804;2023-06-10T19:29:20;94131.13;;;18.58;75.99
21828;BME280;11076;47.942;11.804;2023-06-10T19:34:22;94144.97;;;18.31;77.48
21828;BME280;11076;47.942;11.804;2023-06-10T19:39:25;94146.88;;;18.20;79.42
21828;BME280;11076;47.942;11.804;2023-06-10T19:44:27;94157.44;;;17.96;80.31
21828;BME280;11076;47.942;11.804;2023-06-10T19:49:30;94160.66;;;17.83;81.63
21828;BME280;11076;47.942;11.804;2023-06-10T19:54:33;94165.50;;;17.70;82.38
21828;BME280;11076;47.942;11.804;2023-06-10T19:59:35;94169.00;;;17.66;83.55
21828;BME280;11076;47.942;11.804;2023-06-10T20:04:38;94173.63;;;17.65;84.88
21828;BME280;11076;47.942;11.804;2023-06-10T20:09:40;94167.66;;;17.63;85.72
21828;BME280;11076;47.942;11.804;2023-06-10T20:14:43;94175.22;;;17.66;86.21
21828;BME280;11076;47.942;11.804;2023-06-10T20:19:48;94175.50;;;17.60;87.35
21828;BME280;11076;47.942;11.804;2023-06-10T20:24:54;94184.16;;;17.57;87.41
21828;BME280;11076;47.942;11.804;2023-06-10T20:29:57;94187.09;;;17.50;88.10
21828;BME280;11076;47.942;11.804;2023-06-10T20:34:59;94190.84;;;17.39;89.24
21828;BME280;11076;47.942;11.804;2023-06-10T20:40:02;94183.25;;;17.30;89.54
21828;BME280;11076;47.942;11.804;2023-06-10T20:45:07;94181.06;;;17.22;90.08
21828;BME280;11076;47.942;11.804;2023-06-10T20:50:10;94184.28;;;17.14;90.44
21828;BME280;11076;47.942;11.804;2023-06-10T20:55:12;94191.00;;;17.06;91.13
21828;BME280;11076;47.942;11.804;2023-06-10T21:00:15;94196.66;;;17.05;91.70
21828;BME280;11076;47.942;11.804;2023-06-10T21:05:17;94196.16;;;17.08;92.06
21828;BME280;11076;47.942;11.804;2023-06-10T21:10:19;94194.81;;;17.16;92.05
21828;BME280;11076;47.942;11.804;2023-06-10T21:15:22;94186.72;;;17.16;92.39
21828;BME280;11076;47.942;11.804;2023-06-10T21:20:24;94178.06;;;17.14;92.96
21828;BME280;11076;47.942;11.804;2023-06-10T21:25:27;94184.31;;;17.24;92.43
21828;BME280;11076;47.942;11.804;2023-06-10T21:30:29;94187.00;;;17.19;92.65
21828;BME280;11076;47.942;11.804;2023-06-10T21:35:32;94192.41;;;17.19;92.94
21828;BME280;11076;47.942;11.804;2023-06-10T21:40:34;94195.38;;;17.18;93.62
21828;BME280;11076;47.942;11.804;2023-06-10T21:45:37;94196.22;;;17.28;93.04
21828;BME280;11076;47.942;11.804;2023-06-10T21:50:39;94197.53;;;17.21;93.29
21828;BME280;11076;47.942;11.804;2023-06-10T21:55:41;94206.41;;;17.06;94.03
21828;BME280;11076;47.942;11.804;2023-06-10T22:00:44;94206.63;;;16.94;94.28
21828;BME280;11076;47.942;11.804;2023-06-10T22:05:46;94203.63;;;16.90;94.27
21828;BME280;11076;47.942;11.804;2023-06-10T22:10:49;94210.97;;;16.95;93.99
21828;BME280;11076;47.942;11.804;2023-06-10T22:15:51;94205.78;;;16.88;94.97
21828;BME280;11076;47.942;11.804;2023-06-10T22:20:53;94210.53;;;16.76;95.36
21828;BME280;11076;47.942;11.804;2023-06-10T22:25:56;94205.94;;;16.72;95.74
21828;BME280;11076;47.942;11.804;2023-06-10T22:30:58;94200.75;;;16.65;96.20
21828;BME280;11076;47.942;11.804;2023-06-10T22:36:01;94201.50;;;16.55;96.66
21828;BME280;11076;47.942;11.804;2023-06-10T22:41:03;94199.03;;;16.43;97.01
21828;BME280;11076;47.942;11.804;2023-06-10T22:46:05;94197.88;;;16.34;97.24
21828;BME280;11076;47.942;11.804;2023-06-10T22:51:08;94192.34;;;16.14;99.46
21828;BME280;11076;47.942;11.804;2023-06-10T22:56:10;94192.34;;;16.14;99.29
21828;BME280;11076;47.942;11.804;2023-06-10T23:01:13;94190.13;;;16.10;99.74
21828;BME280;11076;47.942;11.804;2023-06-10T23:06:15;94187.88;;;15.97;100.00
21828;BME280;11076;47.942;11.804;2023-06-10T23:11:18;94199.75;;;15.96;99.32
21828;BME280;11076;47.942;11.804;2023-06-10T23:16:20;94187.00;;;15.91;99.26
21828;BME280;11076;47.942;11.804;2023-06-10T23:21:23;94202.59;;;15.84;100.00
21828;BME280;11076;47.942;11.804;2023-06-10T23:26:25;94203.19;;;15.64;100.00
21828;BME280;11076;47.942;11.804;2023-06-10T23:31:28;94199.56;;;15.54;100.00
21828;BME280;11076;47.942;11.804;2023-06-10T23:36:31;94206.88;;;15.31;100.00
21828;BME280;11076;47.942;11.804;2023-06-10T23:41:34;94210.84;;;15.23;100.00
21828;BME280;11076;47.942;11.804;2023-06-10T23:46:37;94206.69;;;15.16;100.00
21828;BME280;11076;47.942;11.804;2023-06-10T23:51:40;94204.22;;;15.09;100.00
21828;BME280;11076;47.942;11.804;2023-06-10T23:56:42;94200.31;;;15.00;100.00
